createdAt,value
2017-08-25T00:00:40.137Z,1011.65
2017-08-25T00:01:41.542Z,1011.67
2017-08-25T00:02:41.181Z,1011.64
2017-08-25T00:03:41.297Z,1011.65
2017-08-25T00:04:41.680Z,1011.61
2017-08-25T00:05:42.434Z,1011.67
2017-08-25T00:06:43.389Z,1011.63
2017-08-25T00:07:37.687Z,1011.65
2017-08-25T00:08:38.462Z,1011.62
2017-08-25T00:09:38.437Z,1011.64
2017-08-25T00:10:33.493Z,1011.62
2017-08-25T00:11:33.980Z,1011.61
2017-08-25T00:12:28.390Z,1011.62
2017-08-25T00:13:27.671Z,1011.67
2017-08-25T00:14:22.627Z,1011.66
2017-08-25T00:15:18.163Z,1011.65
2017-08-25T00:16:18.231Z,1011.69
2017-08-25T00:17:12.706Z,1011.66
2017-08-25T00:18:08.114Z,1011.68
2017-08-25T00:19:08.809Z,1011.68
2017-08-25T00:20:08.833Z,1011.69
2017-08-25T00:21:09.104Z,1011.72
2017-08-25T00:22:04.052Z,1011.70
2017-08-25T00:22:57.997Z,1011.72
2017-08-25T00:23:59.533Z,1011.73
2017-08-25T00:25:00.495Z,1011.70
2017-08-25T00:25:55.399Z,1011.70
2017-08-25T00:26:55.447Z,1011.69
2017-08-25T00:27:55.121Z,1011.68
2017-08-25T00:28:49.090Z,1011.70
2017-08-25T00:29:49.445Z,1011.71
2017-08-25T00:30:49.677Z,1011.70
2017-08-25T00:31:44.630Z,1011.69
2017-08-25T00:32:38.704Z,1011.76
2017-08-25T00:33:38.674Z,1011.70
2017-08-25T00:34:33.707Z,1011.72
2017-08-25T00:35:28.752Z,1011.70
2017-08-25T00:36:28.820Z,1011.73
2017-08-25T00:37:23.868Z,1011.73
2017-08-25T00:38:18.885Z,1011.72
2017-08-25T00:39:18.940Z,1011.74
2017-08-25T00:40:14.011Z,1011.71
2017-08-25T00:41:14.249Z,1011.77
2017-08-25T00:42:15.050Z,1011.79
2017-08-25T00:43:09.189Z,1011.72
2017-08-25T00:44:10.155Z,1011.75
2017-08-25T00:45:10.183Z,1011.78
2017-08-25T00:46:10.196Z,1011.76
2017-08-25T00:47:05.660Z,1011.74
2017-08-25T00:47:59.295Z,1011.73
2017-08-25T00:48:59.323Z,1011.73
2017-08-25T00:49:54.349Z,1011.72
2017-08-25T00:50:54.342Z,1011.72
2017-08-25T00:51:48.484Z,1011.79
2017-08-25T00:52:48.777Z,1011.77
2017-08-25T00:53:43.443Z,1011.79
2017-08-25T00:54:38.525Z,1011.80
2017-08-25T00:55:38.560Z,1011.77
2017-08-25T00:56:33.535Z,1011.78
2017-08-25T00:57:28.691Z,1011.83
2017-08-25T00:58:29.736Z,1011.78
2017-08-25T00:59:29.666Z,1011.81
2017-08-25T01:00:35.781Z,1011.79
2017-08-25T01:01:30.868Z,1011.84
2017-08-25T01:02:25.789Z,1011.82
2017-08-25T01:03:26.857Z,1011.83
2017-08-25T01:04:27.058Z,1011.84
2017-08-25T01:05:27.054Z,1011.83
2017-08-25T01:06:21.952Z,1011.82
2017-08-25T01:07:15.902Z,1011.86
2017-08-25T01:08:16.022Z,1011.84
2017-08-25T01:09:11.084Z,1011.86
2017-08-25T01:10:11.100Z,1011.88
2017-08-25T01:11:05.197Z,1011.88
2017-08-25T01:12:05.121Z,1011.92
2017-08-25T01:13:00.178Z,1011.87
2017-08-25T01:13:55.282Z,1011.91
2017-08-25T01:14:55.225Z,1011.89
2017-08-25T01:15:50.343Z,1011.90
2017-08-25T01:16:50.443Z,1011.91
2017-08-25T01:17:50.426Z,1011.91
2017-08-25T01:18:50.429Z,1011.91
2017-08-25T01:19:44.453Z,1011.95
2017-08-25T01:20:44.530Z,1011.93
2017-08-25T01:21:39.590Z,1011.95
2017-08-25T01:22:39.574Z,1011.92
2017-08-25T01:23:39.589Z,1011.92
2017-08-25T01:24:39.609Z,1011.93
2017-08-25T01:25:33.574Z,1011.95
2017-08-25T01:26:33.686Z,1011.92
2017-08-25T01:27:28.643Z,1011.93
2017-08-25T01:28:23.767Z,1011.95
2017-08-25T01:29:24.863Z,1011.95
2017-08-25T01:30:24.833Z,1011.96
2017-08-25T01:31:24.879Z,1011.96
2017-08-25T01:32:20.052Z,1011.91
2017-08-25T01:33:19.951Z,1011.96
2017-08-25T01:34:20.085Z,1011.94
2017-08-25T01:35:13.926Z,1011.95
2017-08-25T01:36:14.010Z,1011.94
2017-08-25T01:37:09.036Z,1011.91
2017-08-25T01:38:09.205Z,1011.94
2017-08-25T01:39:03.261Z,1011.94
2017-08-25T01:40:03.210Z,1011.92
2017-08-25T01:40:58.310Z,1011.94
2017-08-25T01:41:53.267Z,1011.91
2017-08-25T01:42:53.297Z,1011.96
2017-08-25T01:43:48.339Z,1011.98
2017-08-25T01:44:43.420Z,1011.91
2017-08-25T01:45:44.499Z,1011.98
2017-08-25T01:46:44.432Z,1012.00
2017-08-25T01:47:44.420Z,1011.99
2017-08-25T01:48:39.549Z,1012.01
2017-08-25T01:49:33.584Z,1011.97
2017-08-25T01:50:34.598Z,1011.98
2017-08-25T01:51:34.650Z,1011.98
2017-08-25T01:52:34.610Z,1011.98
2017-08-25T01:53:29.720Z,1011.96
2017-08-25T01:54:23.710Z,1011.93
2017-08-25T01:55:23.767Z,1011.98
2017-08-25T01:56:18.740Z,1011.96
2017-08-25T01:57:13.903Z,1011.98
2017-08-25T01:58:14.820Z,1011.96
2017-08-25T01:59:14.862Z,1011.96
2017-08-25T02:00:15.021Z,1011.94
2017-08-25T02:01:09.989Z,1011.98
2017-08-25T02:02:04.151Z,1011.98
2017-08-25T02:03:05.057Z,1011.96
2017-08-25T02:04:05.104Z,1011.96
2017-08-25T02:05:05.156Z,1011.96
2017-08-25T02:06:00.169Z,1011.99
2017-08-25T02:06:54.220Z,1011.99
2017-08-25T02:07:54.320Z,1011.99
2017-08-25T02:08:49.295Z,1011.99
2017-08-25T02:09:44.350Z,1011.98
2017-08-25T02:10:45.416Z,1011.96
2017-08-25T02:11:45.392Z,1011.96
2017-08-25T02:12:45.533Z,1011.97
2017-08-25T02:13:40.565Z,1012.01
2017-08-25T02:14:34.421Z,1011.96
2017-08-25T02:15:34.518Z,1011.99
2017-08-25T02:16:29.551Z,1011.98
2017-08-25T02:17:29.520Z,1011.94
2017-08-25T02:18:29.575Z,1011.92
2017-08-25T02:19:29.643Z,1011.92
2017-08-25T02:20:23.643Z,1011.92
2017-08-25T02:21:23.711Z,1011.93
2017-08-25T02:22:18.858Z,1011.90
2017-08-25T02:23:24.730Z,1011.89
2017-08-25T02:24:19.856Z,1011.89
2017-08-25T02:25:13.894Z,1011.92
2017-08-25T02:26:14.984Z,1011.92
2017-08-25T02:27:09.962Z,1011.95
2017-08-25T02:28:09.999Z,1011.92
2017-08-25T02:29:10.133Z,1011.97
2017-08-25T02:30:04.061Z,1011.95
2017-08-25T02:31:04.112Z,1011.96
2017-08-25T02:32:04.129Z,1011.94
2017-08-25T02:32:59.212Z,1011.95
2017-08-25T02:33:53.184Z,1011.94
2017-08-25T02:34:53.215Z,1011.91
2017-08-25T02:35:48.237Z,1011.94
2017-08-25T02:36:43.322Z,1011.88
2017-08-25T02:37:43.293Z,1011.90
2017-08-25T02:38:38.345Z,1011.87
2017-08-25T02:39:33.429Z,1011.89
2017-08-25T02:40:33.347Z,1011.90
2017-08-25T02:41:28.411Z,1011.91
2017-08-25T02:42:23.558Z,1011.93
2017-08-25T02:43:29.610Z,1011.94
2017-08-25T02:44:23.522Z,1011.96
2017-08-25T02:45:23.596Z,1011.97
2017-08-25T02:46:18.640Z,1011.93
2017-08-25T02:47:18.678Z,1011.93
2017-08-25T02:48:12.647Z,1011.96
2017-08-25T02:49:12.771Z,1011.90
2017-08-25T02:50:07.728Z,1011.90
2017-08-25T02:51:02.823Z,1011.89
2017-08-25T02:52:02.772Z,1011.92
2017-08-25T02:52:57.850Z,1011.93
2017-08-25T02:53:52.974Z,1011.94
2017-08-25T02:54:52.935Z,1011.96
2017-08-25T02:55:47.906Z,1011.95
2017-08-25T02:56:42.994Z,1011.93
2017-08-25T02:57:44.074Z,1011.93
2017-08-25T02:58:44.014Z,1011.95
2017-08-25T02:59:44.112Z,1011.95
2017-08-25T03:00:39.167Z,1011.95
2017-08-25T03:01:33.358Z,1011.95
2017-08-25T03:02:33.198Z,1011.91
2017-08-25T03:03:28.301Z,1011.93
2017-08-25T03:04:28.244Z,1011.92
2017-08-25T03:05:22.301Z,1011.95
2017-08-25T03:06:23.331Z,1011.89
2017-08-25T03:07:29.357Z,1011.93
2017-08-25T03:08:23.344Z,1011.94
2017-08-25T03:09:23.304Z,1011.94
2017-08-25T03:10:23.366Z,1011.90
2017-08-25T03:11:18.438Z,1011.91
2017-08-25T03:12:12.545Z,1011.88
2017-08-25T03:13:12.650Z,1011.91
2017-08-25T03:14:07.670Z,1011.90
2017-08-25T03:15:07.710Z,1011.93
2017-08-25T03:16:07.653Z,1011.96
2017-08-25T03:17:07.727Z,1011.97
2017-08-25T03:18:01.808Z,1011.95
2017-08-25T03:19:01.739Z,1011.95
2017-08-25T03:19:56.791Z,1011.93
2017-08-25T03:20:51.812Z,1011.93
2017-08-25T03:21:52.932Z,1011.94
2017-08-25T03:22:52.971Z,1011.95
2017-08-25T03:23:53.084Z,1011.93
2017-08-25T03:24:47.934Z,1011.92
2017-08-25T03:25:42.044Z,1011.93
2017-08-25T03:26:42.145Z,1011.93
2017-08-25T03:27:37.162Z,1011.98
2017-08-25T03:28:37.159Z,1011.98
2017-08-25T03:29:31.184Z,1011.96
2017-08-25T03:30:31.101Z,1011.94
2017-08-25T03:31:26.269Z,1011.96
2017-08-25T03:32:21.234Z,1011.97
2017-08-25T03:33:22.259Z,1011.99
2017-08-25T03:34:22.305Z,1012.00
2017-08-25T03:35:22.287Z,1012.00
2017-08-25T03:36:22.446Z,1012.00
2017-08-25T03:37:22.447Z,1011.99
2017-08-25T03:38:17.491Z,1011.99
2017-08-25T03:39:11.522Z,1012.00
2017-08-25T03:40:11.463Z,1011.96
2017-08-25T03:41:06.545Z,1011.97
2017-08-25T03:42:06.590Z,1011.98
2017-08-25T03:43:06.632Z,1011.97
2017-08-25T03:44:06.570Z,1011.99
2017-08-25T03:45:00.698Z,1011.97
2017-08-25T03:46:00.622Z,1012.02
2017-08-25T03:46:55.616Z,1011.99
2017-08-25T03:47:50.735Z,1012.02
2017-08-25T03:48:50.718Z,1012.01
2017-08-25T03:49:45.842Z,1012.02
2017-08-25T03:50:40.838Z,1012.05
2017-08-25T03:51:40.930Z,1012.06
2017-08-25T03:52:35.971Z,1012.02
2017-08-25T03:53:30.998Z,1012.07
2017-08-25T03:54:32.070Z,1012.06
2017-08-25T03:55:31.987Z,1012.09
2017-08-25T03:56:32.121Z,1012.07
2017-08-25T03:57:27.094Z,1012.12
2017-08-25T03:58:21.104Z,1012.09
2017-08-25T03:59:21.047Z,1012.10
2017-08-25T04:00:16.259Z,1012.11
2017-08-25T04:01:22.254Z,1012.11
2017-08-25T04:02:17.394Z,1012.13
2017-08-25T04:03:11.403Z,1012.07
2017-08-25T04:04:11.455Z,1012.10
2017-08-25T04:05:11.387Z,1012.13
2017-08-25T04:06:12.346Z,1012.09
2017-08-25T04:07:07.445Z,1012.15
2017-08-25T04:08:07.461Z,1012.11
2017-08-25T04:09:02.533Z,1012.13
2017-08-25T04:09:57.620Z,1012.14
2017-08-25T04:10:57.626Z,1012.11
2017-08-25T04:11:57.651Z,1012.08
2017-08-25T04:12:58.750Z,1012.09
2017-08-25T04:13:58.845Z,1012.10
2017-08-25T04:14:53.690Z,1012.11
2017-08-25T04:15:53.691Z,1012.11
2017-08-25T04:16:47.905Z,1012.13
2017-08-25T04:17:47.798Z,1012.10
2017-08-25T04:18:42.956Z,1012.10
2017-08-25T04:19:37.956Z,1012.11
2017-08-25T04:20:31.887Z,1012.09
2017-08-25T04:21:31.966Z,1012.08
2017-08-25T04:22:26.912Z,1012.07
2017-08-25T04:23:21.942Z,1012.09
2017-08-25T04:24:22.039Z,1012.07
2017-08-25T04:25:17.009Z,1012.07
2017-08-25T04:26:12.018Z,1012.04
2017-08-25T04:27:06.302Z,1012.08
2017-08-25T04:28:06.228Z,1012.12
2017-08-25T04:29:01.233Z,1012.12
2017-08-25T04:30:01.170Z,1012.15
2017-08-25T04:31:01.429Z,1012.13
2017-08-25T04:32:01.287Z,1012.17
2017-08-25T04:32:55.208Z,1012.16
2017-08-25T04:33:55.364Z,1012.16
2017-08-25T04:34:50.248Z,1012.21
2017-08-25T04:35:45.320Z,1012.22
2017-08-25T04:36:39.609Z,1012.23
2017-08-25T04:37:39.653Z,1012.19
2017-08-25T04:38:34.670Z,1012.19
2017-08-25T04:39:29.598Z,1012.21
2017-08-25T04:40:29.655Z,1012.20
2017-08-25T04:41:24.723Z,1012.20
2017-08-25T04:42:19.741Z,1012.22
2017-08-25T04:43:13.749Z,1012.20
2017-08-25T04:44:19.746Z,1012.20
2017-08-25T04:45:13.830Z,1012.20
2017-08-25T04:46:14.798Z,1012.18
2017-08-25T04:47:09.827Z,1012.16
2017-08-25T04:48:09.999Z,1012.14
2017-08-25T04:49:10.007Z,1012.13
2017-08-25T04:50:10.003Z,1012.18
2017-08-25T04:51:15.983Z,1012.16
2017-08-25T04:52:11.066Z,1012.17
2017-08-25T04:53:05.088Z,1012.18
2017-08-25T04:54:05.209Z,1012.22
2017-08-25T04:55:00.152Z,1012.24
2017-08-25T04:55:55.178Z,1012.23
2017-08-25T04:56:56.231Z,1012.25
2017-08-25T04:57:56.249Z,1012.30
2017-08-25T04:58:51.289Z,1012.27
2017-08-25T04:59:46.346Z,1012.26
2017-08-25T05:00:47.476Z,1012.19
2017-08-25T05:01:47.378Z,1012.24
2017-08-25T05:02:42.473Z,1012.23
2017-08-25T05:03:37.526Z,1012.21
2017-08-25T05:04:37.545Z,1012.20
2017-08-25T05:05:32.628Z,1012.22
2017-08-25T05:06:27.587Z,1012.26
2017-08-25T05:07:21.636Z,1012.22
2017-08-25T05:08:21.593Z,1012.23
2017-08-25T05:09:16.704Z,1012.24
2017-08-25T05:10:16.706Z,1012.25
2017-08-25T05:11:17.731Z,1012.23
2017-08-25T05:12:11.758Z,1012.25
2017-08-25T05:13:11.795Z,1012.23
2017-08-25T05:14:06.891Z,1012.18
2017-08-25T05:15:01.991Z,1012.21
2017-08-25T05:15:56.007Z,1012.22
2017-08-25T05:16:55.967Z,1012.24
2017-08-25T05:17:51.046Z,1012.26
2017-08-25T05:18:46.074Z,1012.26
2017-08-25T05:19:46.036Z,1012.28
2017-08-25T05:20:41.142Z,1012.30
2017-08-25T05:21:41.081Z,1012.32
2017-08-25T05:22:42.259Z,1012.35
2017-08-25T05:23:43.262Z,1012.34
2017-08-25T05:24:43.199Z,1012.36
2017-08-25T05:25:43.221Z,1012.43
2017-08-25T05:26:37.384Z,1012.39
2017-08-25T05:27:37.386Z,1012.43
2017-08-25T05:28:32.334Z,1012.37
2017-08-25T05:29:27.496Z,1012.37
2017-08-25T05:30:21.513Z,1012.37
2017-08-25T05:31:21.541Z,1012.40
2017-08-25T05:32:16.518Z,1012.37
2017-08-25T05:33:11.565Z,1012.40
2017-08-25T05:34:11.657Z,1012.37
2017-08-25T05:35:06.620Z,1012.39
2017-08-25T05:36:01.762Z,1012.35
2017-08-25T05:36:55.806Z,1012.36
2017-08-25T05:37:56.748Z,1012.37
2017-08-25T05:38:56.758Z,1012.37
2017-08-25T05:39:56.907Z,1012.43
2017-08-25T05:40:51.867Z,1012.41
2017-08-25T05:41:51.921Z,1012.41
2017-08-25T05:42:51.932Z,1012.45
2017-08-25T05:43:51.978Z,1012.42
2017-08-25T05:44:58.134Z,1012.45
2017-08-25T05:45:53.142Z,1012.46
2017-08-25T05:46:53.103Z,1012.46
2017-08-25T05:47:53.302Z,1012.47
2017-08-25T05:48:47.142Z,1012.40
2017-08-25T05:49:47.219Z,1012.36
2017-08-25T05:50:42.243Z,1012.35
2017-08-25T05:51:37.279Z,1012.33
2017-08-25T05:52:31.397Z,1012.37
2017-08-25T05:53:31.404Z,1012.39
2017-08-25T05:54:26.476Z,1012.31
2017-08-25T05:55:26.526Z,1012.35
2017-08-25T05:56:26.569Z,1012.28
2017-08-25T05:57:26.612Z,1012.28
2017-08-25T05:58:20.623Z,1012.31
2017-08-25T05:59:21.608Z,1012.34
2017-08-25T06:00:21.763Z,1012.29
2017-08-25T06:01:16.770Z,1012.33
2017-08-25T06:02:11.765Z,1012.30
2017-08-25T06:03:11.800Z,1012.34
2017-08-25T06:04:06.921Z,1012.31
2017-08-25T06:05:01.877Z,1012.30
2017-08-25T06:05:56.007Z,1012.27
2017-08-25T06:06:55.987Z,1012.31
2017-08-25T06:07:50.985Z,1012.31
2017-08-25T06:08:45.960Z,1012.35
2017-08-25T06:09:47.009Z,1012.38
2017-08-25T06:10:47.092Z,1012.33
2017-08-25T06:11:41.763Z,1012.38
2017-08-25T06:12:41.734Z,1012.33
2017-08-25T06:13:42.898Z,1012.33
2017-08-25T06:14:42.891Z,1012.38
2017-08-25T06:15:42.840Z,1012.40
2017-08-25T06:16:43.275Z,1012.42
2017-08-25T06:17:43.150Z,1012.44
2017-08-25T06:18:43.090Z,1012.44
2017-08-25T06:19:43.185Z,1012.41
2017-08-25T06:20:43.223Z,1012.38
2017-08-25T06:21:43.277Z,1012.35
2017-08-25T06:22:43.574Z,1012.35
2017-08-25T06:23:43.656Z,1012.37
2017-08-25T06:24:43.647Z,1012.36
2017-08-25T06:25:43.691Z,1012.43
2017-08-25T06:26:43.782Z,1012.41
2017-08-25T06:27:43.831Z,1012.38
2017-08-25T06:28:43.847Z,1012.42
2017-08-25T06:29:44.017Z,1012.44
2017-08-25T06:30:37.907Z,1012.50
2017-08-25T06:31:31.907Z,1012.48
2017-08-25T06:32:27.018Z,1012.47
2017-08-25T06:33:16.049Z,1012.49
2017-08-25T06:34:04.061Z,1012.52
2017-08-25T06:34:53.213Z,1012.54
2017-08-25T06:35:41.207Z,1012.58
2017-08-25T06:36:29.286Z,1012.58
2017-08-25T06:37:18.284Z,1012.59
2017-08-25T06:38:06.259Z,1012.64
2017-08-25T06:38:54.512Z,1012.64
2017-08-25T06:39:42.477Z,1012.61
2017-08-25T06:40:31.560Z,1012.70
2017-08-25T06:41:19.673Z,1012.66
2017-08-25T06:42:07.516Z,1012.72
2017-08-25T06:42:56.640Z,1012.69
2017-08-25T06:43:44.719Z,1012.70
2017-08-25T06:44:38.790Z,1012.70
2017-08-25T06:45:27.866Z,1012.71
2017-08-25T06:46:21.856Z,1012.71
2017-08-25T06:47:16.945Z,1012.64
2017-08-25T06:48:11.902Z,1012.66
2017-08-25T06:49:00.958Z,1012.66
2017-08-25T06:49:49.039Z,1012.65
2017-08-25T06:50:43.169Z,1012.70
2017-08-25T06:51:32.454Z,1012.65
2017-08-25T06:52:26.192Z,1012.63
2017-08-25T06:53:20.262Z,1012.63
2017-08-25T06:54:14.372Z,1012.64
2017-08-25T06:55:15.299Z,1012.70
2017-08-25T06:56:16.320Z,1012.73
2017-08-25T06:57:10.637Z,1012.67
2017-08-25T06:57:58.498Z,1012.67
2017-08-25T06:58:58.469Z,1012.63
2017-08-25T06:59:53.520Z,1012.64
2017-08-25T07:00:48.581Z,1012.63
2017-08-25T07:01:36.689Z,1012.65
2017-08-25T07:02:32.379Z,1012.70
2017-08-25T07:03:20.713Z,1012.68
2017-08-25T07:04:14.820Z,1012.64
2017-08-25T07:05:09.848Z,1012.73
2017-08-25T07:06:03.997Z,1012.68
2017-08-25T07:06:58.009Z,1012.78
2017-08-25T07:07:58.082Z,1012.78
2017-08-25T07:08:53.011Z,1012.78
2017-08-25T07:09:41.038Z,1012.78
2017-08-25T07:10:35.221Z,1012.80
2017-08-25T07:11:23.238Z,1012.78
2017-08-25T07:12:11.284Z,1012.72
2017-08-25T07:13:12.388Z,1012.70
2017-08-25T07:14:06.365Z,1012.69
2017-08-25T07:15:00.430Z,1012.73
2017-08-25T07:15:54.467Z,1012.69
2017-08-25T07:16:49.474Z,1012.73
2017-08-25T07:17:37.538Z,1012.73
2017-08-25T07:18:26.556Z,1012.75
2017-08-25T07:19:14.677Z,1012.77
2017-08-25T07:20:08.749Z,1012.78
2017-08-25T07:21:02.692Z,1012.80
2017-08-25T07:21:56.802Z,1012.82
2017-08-25T07:22:51.904Z,1012.82
2017-08-25T07:23:51.920Z,1012.83
2017-08-25T07:24:46.070Z,1012.84
2017-08-25T07:25:40.032Z,1012.92
2017-08-25T07:26:40.027Z,1012.94
2017-08-25T07:27:35.107Z,1012.96
2017-08-25T07:28:30.092Z,1012.99
2017-08-25T07:29:18.175Z,1013.00
2017-08-25T07:30:18.236Z,1013.05
2017-08-25T07:31:07.365Z,1013.07
2017-08-25T07:32:01.256Z,1013.07
2017-08-25T07:32:50.316Z,1012.97
2017-08-25T07:33:50.445Z,1013.02
2017-08-25T07:34:44.497Z,1013.02
2017-08-25T07:35:33.551Z,1012.97
2017-08-25T07:36:27.620Z,1013.00
2017-08-25T07:37:16.633Z,1013.03
2017-08-25T07:38:04.700Z,1013.06
2017-08-25T07:38:53.741Z,1013.03
2017-08-25T07:39:53.843Z,1013.04
2017-08-25T07:40:48.927Z,1013.01
2017-08-25T07:41:44.033Z,1012.97
2017-08-25T07:42:43.988Z,1012.94
2017-08-25T07:43:31.973Z,1012.94
2017-08-25T07:44:26.109Z,1012.96
2017-08-25T07:45:14.204Z,1012.93
2017-08-25T07:46:02.147Z,1012.93
2017-08-25T07:47:02.237Z,1013.00
2017-08-25T07:47:56.266Z,1013.02
2017-08-25T07:48:56.255Z,1013.01
2017-08-25T07:49:44.408Z,1012.99
2017-08-25T07:50:33.649Z,1013.05
2017-08-25T07:51:28.536Z,1012.98
2017-08-25T07:52:28.592Z,1013.02
2017-08-25T07:53:23.621Z,1013.02
2017-08-25T07:54:12.640Z,1013.02
2017-08-25T07:55:06.656Z,1013.01
2017-08-25T07:55:54.813Z,1012.95
2017-08-25T07:56:42.839Z,1012.98
2017-08-25T07:57:36.898Z,1013.00
2017-08-25T07:58:31.003Z,1012.98
2017-08-25T07:59:25.095Z,1012.95
2017-08-25T08:00:14.115Z,1012.94
2017-08-25T08:01:03.145Z,1013.00
2017-08-25T08:01:52.157Z,1012.99
2017-08-25T08:02:52.290Z,1013.04
2017-08-25T08:03:40.317Z,1013.06
2017-08-25T08:04:35.365Z,1013.06
2017-08-25T08:05:29.475Z,1013.06
2017-08-25T08:06:18.991Z,1013.08
2017-08-25T08:07:13.570Z,1013.04
2017-08-25T08:08:07.615Z,1013.09
2017-08-25T08:09:07.689Z,1013.08
2017-08-25T08:10:02.735Z,1013.09
2017-08-25T08:10:56.730Z,1013.09
2017-08-25T08:11:51.803Z,1013.10
2017-08-25T08:12:45.890Z,1013.11
2017-08-25T08:13:39.975Z,1013.16
2017-08-25T08:14:28.980Z,1013.10
2017-08-25T08:15:23.057Z,1013.12
2017-08-25T08:16:11.072Z,1013.07
2017-08-25T08:17:05.163Z,1013.06
2017-08-25T08:17:54.239Z,1013.02
2017-08-25T08:18:48.329Z,1013.02
2017-08-25T08:19:43.362Z,1013.03
2017-08-25T08:20:31.533Z,1013.03
2017-08-25T08:21:31.495Z,1013.03
2017-08-25T08:22:20.543Z,1013.00
2017-08-25T08:23:08.604Z,1013.05
2017-08-25T08:24:08.608Z,1013.00
2017-08-25T08:25:02.789Z,1013.01
2017-08-25T08:25:50.830Z,1013.03
2017-08-25T08:26:44.822Z,1013.06
2017-08-25T08:27:39.867Z,1013.08
2017-08-25T08:28:28.838Z,1013.07
2017-08-25T08:29:28.939Z,1012.98
2017-08-25T08:30:23.053Z,1013.09
2017-08-25T08:31:18.057Z,1013.15
2017-08-25T08:32:12.168Z,1013.09
2017-08-25T08:33:06.263Z,1013.13
2017-08-25T08:34:01.329Z,1013.21
2017-08-25T08:34:50.292Z,1013.14
2017-08-25T08:35:50.401Z,1013.16
2017-08-25T08:36:39.372Z,1013.13
2017-08-25T08:37:33.541Z,1013.01
2017-08-25T08:38:28.605Z,1013.07
2017-08-25T08:39:29.581Z,1013.08
2017-08-25T08:40:29.664Z,1013.04
2017-08-25T08:41:29.770Z,1013.04
2017-08-25T08:42:17.965Z,1013.06
2017-08-25T08:43:06.905Z,1012.99
2017-08-25T08:44:00.908Z,1012.99
2017-08-25T08:45:00.940Z,1012.92
2017-08-25T08:45:55.093Z,1012.88
2017-08-25T08:46:49.111Z,1012.93
2017-08-25T08:47:38.238Z,1012.92
2017-08-25T08:48:32.274Z,1012.88
2017-08-25T08:49:32.272Z,1012.88
2017-08-25T08:50:26.401Z,1012.90
2017-08-25T08:51:15.402Z,1012.90
2017-08-25T08:52:04.515Z,1012.93
2017-08-25T08:52:58.618Z,1012.97
2017-08-25T08:53:52.641Z,1012.98
2017-08-25T08:54:41.688Z,1012.98
2017-08-25T08:55:35.723Z,1012.95
2017-08-25T08:56:29.835Z,1012.92
2017-08-25T08:57:23.717Z,1012.91
2017-08-25T08:58:12.843Z,1012.93
2017-08-25T08:59:01.950Z,1012.97
2017-08-25T08:59:51.077Z,1012.94
2017-08-25T09:00:44.985Z,1013.00
2017-08-25T09:01:40.033Z,1012.96
2017-08-25T09:02:34.188Z,1012.97
2017-08-25T09:03:28.280Z,1012.99
2017-08-25T09:04:22.445Z,1012.99
2017-08-25T09:05:17.455Z,1012.98
2017-08-25T09:06:12.541Z,1013.03
2017-08-25T09:07:07.523Z,1012.97
2017-08-25T09:08:01.580Z,1013.00
2017-08-25T09:09:01.680Z,1013.07
2017-08-25T09:09:49.736Z,1013.04
2017-08-25T09:10:49.919Z,1013.03
2017-08-25T09:11:44.801Z,1013.01
2017-08-25T09:12:39.952Z,1012.98
2017-08-25T09:13:33.971Z,1012.98
2017-08-25T09:14:23.129Z,1012.99
2017-08-25T09:15:17.135Z,1013.01
2017-08-25T09:16:11.231Z,1013.04
2017-08-25T09:17:11.260Z,1012.97
2017-08-25T09:17:59.394Z,1012.98
2017-08-25T09:18:59.504Z,1013.04
2017-08-25T09:19:53.593Z,1013.04
2017-08-25T09:20:47.571Z,1013.02
2017-08-25T09:21:41.798Z,1012.90
2017-08-25T09:22:35.742Z,1013.06
2017-08-25T09:23:29.873Z,1013.04
2017-08-25T09:24:23.962Z,1012.97
2017-08-25T09:25:17.972Z,1013.02
2017-08-25T09:26:12.956Z,1013.08
2017-08-25T09:27:07.259Z,1013.02
2017-08-25T09:28:02.244Z,1013.11
2017-08-25T09:28:51.231Z,1013.11
2017-08-25T09:29:46.268Z,1013.08
2017-08-25T09:30:40.411Z,1013.10
2017-08-25T09:31:35.405Z,1013.08
2017-08-25T09:32:35.524Z,1013.07
2017-08-25T09:33:30.477Z,1013.05
2017-08-25T09:34:19.568Z,1013.02
2017-08-25T09:35:08.682Z,1012.98
2017-08-25T09:36:02.702Z,1013.01
2017-08-25T09:36:51.785Z,1013.00
2017-08-25T09:37:46.172Z,1012.90
2017-08-25T09:38:46.002Z,1013.06
2017-08-25T09:39:46.040Z,1013.00
2017-08-25T09:40:47.077Z,1013.02
2017-08-25T09:41:36.169Z,1013.02
2017-08-25T09:42:30.322Z,1012.98
2017-08-25T09:43:25.401Z,1013.01
2017-08-25T09:44:26.502Z,1012.94
2017-08-25T09:45:21.632Z,1012.97
2017-08-25T09:46:16.634Z,1013.00
2017-08-25T09:47:16.576Z,1012.96
2017-08-25T09:48:10.625Z,1013.03
2017-08-25T09:49:04.749Z,1013.04
2017-08-25T09:50:05.817Z,1013.06
2017-08-25T09:50:54.838Z,1012.99
2017-08-25T09:51:49.027Z,1013.04
2017-08-25T09:52:38.067Z,1013.12
2017-08-25T09:53:27.116Z,1013.02
2017-08-25T09:54:22.147Z,1013.06
2017-08-25T09:55:17.278Z,1013.01
2017-08-25T09:56:06.262Z,1013.03
2017-08-25T09:57:06.335Z,1013.03
2017-08-25T09:58:12.325Z,1013.03
2017-08-25T09:59:12.428Z,1013.09
2017-08-25T10:00:06.683Z,1013.09
2017-08-25T10:01:06.592Z,1013.06
2017-08-25T10:02:00.663Z,1013.16
2017-08-25T10:02:54.658Z,1013.15
2017-08-25T10:03:43.727Z,1013.15
2017-08-25T10:04:31.805Z,1013.17
2017-08-25T10:05:25.890Z,1013.19
2017-08-25T10:06:19.889Z,1013.22
2017-08-25T10:07:20.008Z,1013.17
2017-08-25T10:08:15.114Z,1013.16
2017-08-25T10:09:09.048Z,1013.14
2017-08-25T10:10:04.187Z,1013.16
2017-08-25T10:10:59.517Z,1013.15
2017-08-25T10:11:53.286Z,1013.11
2017-08-25T10:12:42.351Z,1013.06
2017-08-25T10:13:42.367Z,1013.07
2017-08-25T10:14:36.559Z,1013.03
2017-08-25T10:15:25.505Z,1013.03
2017-08-25T10:16:19.939Z,1013.10
2017-08-25T10:17:14.698Z,1013.12
2017-08-25T10:18:03.701Z,1013.09
2017-08-25T10:18:57.793Z,1013.13
2017-08-25T10:19:45.929Z,1013.12
2017-08-25T10:20:40.943Z,1013.17
2017-08-25T10:21:29.980Z,1013.16
2017-08-25T10:22:18.014Z,1013.11
2017-08-25T10:23:07.184Z,1013.06
2017-08-25T10:24:01.212Z,1013.03
2017-08-25T10:24:50.311Z,1013.00
2017-08-25T10:25:44.377Z,1012.94
2017-08-25T10:26:33.437Z,1012.88
2017-08-25T10:27:27.547Z,1012.90
2017-08-25T10:28:27.721Z,1012.86
2017-08-25T10:29:16.614Z,1012.84
2017-08-25T10:30:05.800Z,1012.85
2017-08-25T10:31:05.812Z,1012.88
2017-08-25T10:31:55.016Z,1012.87
2017-08-25T10:32:49.954Z,1012.88
2017-08-25T10:33:50.085Z,1012.86
2017-08-25T10:34:44.124Z,1012.84
2017-08-25T10:35:38.243Z,1012.85
2017-08-25T10:36:33.282Z,1012.82
2017-08-25T10:37:28.339Z,1012.83
2017-08-25T10:38:16.458Z,1012.81
2017-08-25T10:39:11.556Z,1012.83
2017-08-25T10:40:00.604Z,1012.84
2017-08-25T10:40:54.610Z,1012.88
2017-08-25T10:41:48.763Z,1012.86
2017-08-25T10:42:42.796Z,1012.88
2017-08-25T10:43:37.860Z,1012.85
2017-08-25T10:44:32.005Z,1012.80
2017-08-25T10:45:26.089Z,1012.73
2017-08-25T10:46:21.325Z,1012.76
2017-08-25T10:47:15.176Z,1012.69
2017-08-25T10:48:15.451Z,1012.75
2017-08-25T10:49:15.465Z,1012.71
2017-08-25T10:50:10.467Z,1012.67
2017-08-25T10:51:10.677Z,1012.70
2017-08-25T10:51:59.635Z,1012.69
2017-08-25T10:52:54.655Z,1012.71
2017-08-25T10:53:48.850Z,1012.75
2017-08-25T10:54:37.951Z,1012.68
2017-08-25T10:55:31.975Z,1012.71
2017-08-25T10:56:26.021Z,1012.70
2017-08-25T10:57:20.082Z,1012.76
2017-08-25T10:58:20.175Z,1012.74
2017-08-25T10:59:14.397Z,1012.68
2017-08-25T11:00:09.329Z,1012.68
2017-08-25T11:01:03.405Z,1012.63
2017-08-25T11:01:58.485Z,1012.67
2017-08-25T11:02:52.540Z,1012.68
2017-08-25T11:03:47.543Z,1012.71
2017-08-25T11:04:48.812Z,1012.64
2017-08-25T11:05:42.708Z,1012.73
2017-08-25T11:06:36.678Z,1012.68
2017-08-25T11:07:30.779Z,1012.69
2017-08-25T11:08:18.957Z,1012.71
2017-08-25T11:09:13.961Z,1012.66
2017-08-25T11:10:14.030Z,1012.70
2017-08-25T11:11:02.099Z,1012.71
2017-08-25T11:11:51.237Z,1012.70
2017-08-25T11:12:39.304Z,1012.70
2017-08-25T11:13:33.369Z,1012.73
2017-08-25T11:14:22.562Z,1012.72
2017-08-25T11:15:17.552Z,1012.75
2017-08-25T11:16:06.729Z,1012.75